createdAt,value
2023-04-18T00:01:30.041Z,59.39
2023-04-18T00:04:18.259Z,59.31
2023-04-18T00:07:04.403Z,59.17
2023-04-18T00:09:50.333Z,59.34
2023-04-18T00:12:36.487Z,59.34
2023-04-18T00:15:22.572Z,59.24
2023-04-18T00:18:08.563Z,59.29
2023-04-18T00:20:54.702Z,59.48
2023-04-18T00:23:41.735Z,59.39
2023-04-18T00:26:28.198Z,58.95
2023-04-18T00:29:15.837Z,59.27
2023-04-18T00:32:01.551Z,59.40
2023-04-18T00:34:50.058Z,59.61
2023-04-18T00:37:38.369Z,59.63
2023-04-18T00:40:24.911Z,59.45
2023-04-18T00:43:14.219Z,59.53
2023-04-18T00:46:01.649Z,59.53
2023-04-18T00:48:48.253Z,59.41
2023-04-18T00:51:35.441Z,59.22
2023-04-18T00:54:21.822Z,59.28
2023-04-18T00:57:08.106Z,59.41
2023-04-18T00:59:54.045Z,58.97
2023-04-18T01:02:40.711Z,59.15
2023-04-18T01:05:26.969Z,59.19
2023-04-18T01:08:12.960Z,59.27
2023-04-18T01:10:58.907Z,59.21
2023-04-18T01:14:04.923Z,59.34
2023-04-18T01:16:51.105Z,59.39
2023-04-18T01:19:37.936Z,59.24
2023-04-18T01:22:26.185Z,59.46
2023-04-18T01:25:12.771Z,59.34
2023-04-18T01:27:58.920Z,59.50
2023-04-18T01:30:46.574Z,59.56
2023-04-18T01:33:32.412Z,59.80
2023-04-18T01:36:18.216Z,59.85
2023-04-18T01:39:04.166Z,59.64
2023-04-18T01:41:51.589Z,59.76
2023-04-18T01:44:37.556Z,59.64
2023-04-18T01:47:24.414Z,59.71
2023-04-18T01:50:10.769Z,59.81
2023-04-18T01:52:56.603Z,59.60
2023-04-18T01:55:42.676Z,59.81
2023-04-18T01:58:28.388Z,59.57
2023-04-18T02:01:14.281Z,59.73
2023-04-18T02:04:00.197Z,59.62
2023-04-18T02:06:46.788Z,59.65
2023-04-18T02:09:32.905Z,59.87
2023-04-18T02:12:18.853Z,59.76
2023-04-18T02:15:04.904Z,59.57
2023-04-18T02:17:54.463Z,59.71
2023-04-18T02:20:42.502Z,59.60
2023-04-18T02:23:28.130Z,59.56
2023-04-18T02:26:14.552Z,59.72
2023-04-18T02:29:01.302Z,59.68
2023-04-18T02:31:48.561Z,59.80
2023-04-18T02:34:34.443Z,59.60
2023-04-18T02:37:20.570Z,59.76
2023-04-18T02:40:07.320Z,59.99
2023-04-18T02:42:53.383Z,59.88
2023-04-18T02:45:39.440Z,59.82
2023-04-18T02:48:26.140Z,59.79
2023-04-18T02:51:12.798Z,59.71
2023-04-18T02:53:59.700Z,59.75
2023-04-18T02:56:54.725Z,59.70
2023-04-18T02:59:44.455Z,59.81
2023-04-18T03:02:51.171Z,59.93
2023-04-18T03:05:50.413Z,59.78
2023-04-18T03:08:36.252Z,59.89
2023-04-18T03:11:22.533Z,60.04
2023-04-18T03:14:08.886Z,59.58
2023-04-18T03:17:04.312Z,59.76
2023-04-18T03:19:56.221Z,59.87
2023-04-18T03:22:42.899Z,59.85
2023-04-18T03:25:30.133Z,59.85
2023-04-18T03:28:17.399Z,59.88
2023-04-18T03:31:03.250Z,59.86
2023-04-18T03:33:51.804Z,59.95
2023-04-18T03:36:39.233Z,59.87
2023-04-18T03:39:25.550Z,59.86
2023-04-18T03:42:12.453Z,59.72
2023-04-18T03:45:00.592Z,59.84
2023-04-18T03:47:48.552Z,59.94
2023-04-18T03:50:36.528Z,59.75
2023-04-18T03:53:25.408Z,59.79
2023-04-18T03:56:11.354Z,59.72
2023-04-18T03:59:07.024Z,59.85
2023-04-18T04:01:53.083Z,59.81
2023-04-18T04:04:39.425Z,59.62
2023-04-18T04:07:25.411Z,59.94
2023-04-18T04:10:11.301Z,59.87
2023-04-18T04:12:57.381Z,59.93
2023-04-18T04:15:43.783Z,59.89
2023-04-18T04:18:31.280Z,60.09
2023-04-18T04:21:20.657Z,60.03
2023-04-18T04:24:10.518Z,59.85
2023-04-18T04:27:01.243Z,59.72
2023-04-18T04:29:47.394Z,59.80
2023-04-18T04:32:33.503Z,60.13
2023-04-18T04:35:19.715Z,59.91
2023-04-18T04:38:05.873Z,59.83
2023-04-18T04:40:59.275Z,60.07
2023-04-18T04:43:47.059Z,60.06
2023-04-18T04:46:39.641Z,59.77
2023-04-18T04:49:31.454Z,59.82
2023-04-18T04:52:17.292Z,60.06
2023-04-18T04:55:03.986Z,60.15
2023-04-18T04:57:49.969Z,60.06
2023-04-18T05:00:50.942Z,59.97
2023-04-18T05:03:36.993Z,59.92
2023-04-18T05:06:24.771Z,59.91
2023-04-18T05:09:10.706Z,60.20
2023-04-18T05:11:56.842Z,60.22
2023-04-18T05:14:42.827Z,60.28
2023-04-18T05:17:28.657Z,60.11
2023-04-18T05:20:14.395Z,59.96
2023-04-18T05:23:00.275Z,60.04
2023-04-18T05:25:46.521Z,59.95
2023-04-18T05:28:32.760Z,60.01
2023-04-18T05:31:18.927Z,60.04
2023-04-18T05:34:04.998Z,60.12
2023-04-18T05:36:51.169Z,60.03
2023-04-18T05:39:36.936Z,60.19
2023-04-18T05:42:22.695Z,59.99
2023-04-18T05:45:09.008Z,59.86
2023-04-18T05:47:54.950Z,60.11
2023-04-18T05:50:41.064Z,59.70
2023-04-18T05:53:28.327Z,60.10
2023-04-18T05:56:14.101Z,60.00
2023-04-18T05:58:59.821Z,59.79
2023-04-18T06:01:45.701Z,59.84
2023-04-18T06:04:31.503Z,59.76
2023-04-18T06:07:17.798Z,59.74
2023-04-18T06:10:05.723Z,59.70
2023-04-18T06:12:51.376Z,59.37
2023-04-18T06:15:37.176Z,59.53
2023-04-18T06:18:23.317Z,59.46
2023-04-18T06:21:09.028Z,59.50
2023-04-18T06:23:54.909Z,59.44
2023-04-18T06:26:41.040Z,59.41
2023-04-18T06:29:30.327Z,59.38
2023-04-18T06:32:16.284Z,59.23
2023-04-18T06:35:02.291Z,59.48
2023-04-18T06:37:49.202Z,59.28
2023-04-18T06:40:35.153Z,59.34
2023-04-18T06:43:22.090Z,59.28
2023-04-18T06:46:09.732Z,59.26
2023-04-18T06:48:55.522Z,59.35
2023-04-18T06:51:41.206Z,59.44
2023-04-18T06:54:27.429Z,59.28
2023-04-18T06:57:13.286Z,59.21
2023-04-18T06:59:59.077Z,59.05
2023-04-18T07:02:45.146Z,59.00
2023-04-18T07:05:31.090Z,58.94
2023-04-18T07:08:16.846Z,58.86
2023-04-18T07:11:02.872Z,58.69
2023-04-18T07:13:49.415Z,58.72
2023-04-18T07:16:35.161Z,58.74
2023-04-18T07:19:21.082Z,58.45
2023-04-18T07:22:13.151Z,58.45
2023-04-18T07:24:59.144Z,58.77
2023-04-18T07:27:45.009Z,58.75
2023-04-18T07:30:31.101Z,58.47
2023-04-18T07:33:16.829Z,58.50
2023-04-18T07:36:03.335Z,58.52
2023-04-18T07:38:49.317Z,58.41
2023-04-18T07:41:35.587Z,58.42
2023-04-18T07:44:22.090Z,58.38
2023-04-18T07:47:11.339Z,58.26
2023-04-18T07:49:57.510Z,58.04
2023-04-18T07:52:43.614Z,57.87
2023-04-18T07:55:30.113Z,57.92
2023-04-18T07:58:15.839Z,58.12
2023-04-18T08:01:02.831Z,57.45
2023-04-18T08:03:48.737Z,57.31
2023-04-18T08:06:34.896Z,57.39
2023-04-18T08:09:21.876Z,57.54
2023-04-18T08:12:07.670Z,57.68
2023-04-18T08:14:53.378Z,57.44
2023-04-18T08:17:39.408Z,57.63
2023-04-18T08:20:25.802Z,57.34
2023-04-18T08:23:13.248Z,57.31
2023-04-18T08:25:59.334Z,57.00
2023-04-18T08:28:46.549Z,56.95
2023-04-18T08:31:32.783Z,56.66
2023-04-18T08:34:18.715Z,56.78
2023-04-18T08:37:04.870Z,56.74
2023-04-18T08:39:52.167Z,56.67
2023-04-18T08:42:58.363Z,56.27
2023-04-18T08:45:45.263Z,56.60
2023-04-18T08:48:31.116Z,56.44
2023-04-18T08:51:17.675Z,56.21
2023-04-18T08:54:15.820Z,56.38
2023-04-18T08:57:09.642Z,56.07
2023-04-18T08:59:55.557Z,55.82
2023-04-18T09:02:46.959Z,55.90
2023-04-18T09:05:33.722Z,55.80
2023-04-18T09:08:24.536Z,55.44
2023-04-18T09:11:29.369Z,55.33
2023-04-18T09:14:26.600Z,55.03
2023-04-18T09:17:34.773Z,55.15
2023-04-18T09:20:43.826Z,55.43
2023-04-18T09:23:30.432Z,55.01
2023-04-18T09:26:39.777Z,55.25
2023-04-18T09:29:55.903Z,54.96
2023-04-18T09:32:59.271Z,54.99
2023-04-18T09:35:45.155Z,55.44
2023-04-18T09:38:43.814Z,54.85
2023-04-18T09:41:31.426Z,54.95
2023-04-18T09:44:17.849Z,55.07
2023-04-18T09:47:03.893Z,54.94
2023-04-18T09:49:50.049Z,54.78
2023-04-18T09:52:40.872Z,54.58
2023-04-18T09:55:27.374Z,54.60
2023-04-18T09:58:14.923Z,54.43
2023-04-18T10:01:00.945Z,54.43
2023-04-18T10:03:48.258Z,54.57
2023-04-18T10:06:35.066Z,54.08
2023-04-18T10:09:21.286Z,53.90
2023-04-18T10:12:07.243Z,53.66
2023-04-18T10:14:53.911Z,54.12
2023-04-18T10:18:11.036Z,53.30
2023-04-18T10:21:04.700Z,54.05
2023-04-18T10:23:50.981Z,53.69
2023-04-18T10:26:50.526Z,53.75
2023-04-18T10:30:09.193Z,53.27
2023-04-18T10:32:55.865Z,53.56
2023-04-18T10:36:15.058Z,53.20
2023-04-18T10:39:04.148Z,53.57
2023-04-18T10:41:55.414Z,53.57
2023-04-18T10:44:42.947Z,53.23
2023-04-18T10:47:28.769Z,53.31
2023-04-18T10:50:15.021Z,53.26
2023-04-18T10:53:00.842Z,53.71
2023-04-18T10:55:50.179Z,53.19
2023-04-18T10:58:41.947Z,53.34
2023-04-18T11:01:33.025Z,53.73
2023-04-18T11:04:19.568Z,53.54
2023-04-18T11:07:06.078Z,53.20
2023-04-18T11:09:56.737Z,53.41
2023-04-18T11:12:42.528Z,53.51
2023-04-18T11:15:30.378Z,53.17
2023-04-18T11:18:17.046Z,52.95
2023-04-18T11:21:03.960Z,53.42
2023-04-18T11:23:54.930Z,53.37
2023-04-18T11:26:40.821Z,53.48
2023-04-18T11:29:27.830Z,53.52
2023-04-18T11:32:15.638Z,52.76
2023-04-18T11:35:02.449Z,52.47
2023-04-18T11:37:50.359Z,52.22
2023-04-18T11:40:36.767Z,51.84
2023-04-18T11:43:27.420Z,51.74
2023-04-18T11:46:13.946Z,51.42
2023-04-18T11:48:59.980Z,50.80
2023-04-18T11:51:47.509Z,49.73
2023-04-18T11:54:44.389Z,49.32
2023-04-18T11:57:30.442Z,49.55
2023-04-18T12:00:18.310Z,49.53
2023-04-18T12:03:08.180Z,49.77
2023-04-18T12:06:01.537Z,49.50
2023-04-18T12:08:47.632Z,49.65
2023-04-18T12:11:33.379Z,49.59
2023-04-18T12:14:22.456Z,49.73
2023-04-18T12:17:08.078Z,49.89
2023-04-18T12:19:54.113Z,50.12
2023-04-18T12:22:45.548Z,49.96
2023-04-18T12:25:31.754Z,50.35
2023-04-18T12:28:20.373Z,50.38
2023-04-18T12:31:07.434Z,50.74
2023-04-18T12:33:54.556Z,50.72
2023-04-18T12:36:40.471Z,50.99
2023-04-18T12:39:26.619Z,51.08
2023-04-18T12:42:16.343Z,51.24
2023-04-18T12:45:03.462Z,51.11
2023-04-18T12:47:51.312Z,51.42
2023-04-18T12:50:37.484Z,51.77
2023-04-18T12:53:23.523Z,51.52
2023-04-18T12:56:09.515Z,51.84
2023-04-18T12:58:55.597Z,51.82
2023-04-18T13:01:41.173Z,52.04
2023-04-18T13:04:27.234Z,52.14
2023-04-18T13:07:19.385Z,52.63
2023-04-18T13:10:05.816Z,52.38
2023-04-18T13:12:52.366Z,52.56
2023-04-18T13:16:06.218Z,52.50
2023-04-18T13:18:54.099Z,52.41
2023-04-18T13:21:39.816Z,52.94
2023-04-18T13:24:25.588Z,53.11
2023-04-18T13:27:11.902Z,52.88
2023-04-18T13:29:58.333Z,53.24
2023-04-18T13:32:44.312Z,53.17
2023-04-18T13:35:30.414Z,53.19
2023-04-18T13:38:16.495Z,52.94
2023-04-18T13:41:12.417Z,52.75
2023-04-18T13:44:01.561Z,52.95
2023-04-18T13:46:47.591Z,52.76
2023-04-18T13:49:34.185Z,53.30
2023-04-18T13:52:20.216Z,52.96
2023-04-18T13:55:06.496Z,52.48
2023-04-18T13:57:52.521Z,51.75
2023-04-18T14:00:38.713Z,50.81
2023-04-18T14:03:24.880Z,49.60
2023-04-18T14:06:11.059Z,49.24
2023-04-18T14:08:57.120Z,48.07
2023-04-18T14:11:43.669Z,47.66
2023-04-18T14:14:30.035Z,46.89
2023-04-18T14:17:16.071Z,46.26
2023-04-18T14:20:02.424Z,45.85
2023-04-18T14:22:53.183Z,45.37
2023-04-18T14:25:39.429Z,44.47
2023-04-18T14:28:25.510Z,43.95
2023-04-18T14:31:13.602Z,43.54
2023-04-18T14:33:59.663Z,43.24
2023-04-18T14:36:45.400Z,43.30
2023-04-18T14:39:31.221Z,42.87
2023-04-18T14:42:19.787Z,42.63
2023-04-18T14:45:18.268Z,42.02
2023-04-18T14:48:06.009Z,42.59
2023-04-18T14:51:02.619Z,42.83
2023-04-18T14:53:48.541Z,43.47
2023-04-18T14:56:34.417Z,43.60
2023-04-18T14:59:20.746Z,43.54
2023-04-18T15:02:07.475Z,43.87
2023-04-18T15:04:53.631Z,44.55
2023-04-18T15:07:42.947Z,44.80
2023-04-18T15:10:28.874Z,44.88
2023-04-18T15:13:14.804Z,44.75
2023-04-18T15:16:01.502Z,44.56
2023-04-18T15:18:47.384Z,44.82
2023-04-18T15:21:33.085Z,44.51
2023-04-18T15:24:18.934Z,44.08
2023-04-18T15:27:05.052Z,43.91
2023-04-18T15:29:51.008Z,44.02
2023-04-18T15:32:40.258Z,44.34
2023-04-18T15:35:26.216Z,44.44
2023-04-18T15:38:12.303Z,44.70
2023-04-18T15:40:58.478Z,44.87
2023-04-18T15:43:45.698Z,44.95
2023-04-18T15:46:31.611Z,44.95
2023-04-18T15:49:20.050Z,45.21
2023-04-18T15:52:07.006Z,45.22
2023-04-18T15:54:54.725Z,45.31
2023-04-18T15:57:41.880Z,45.50
2023-04-18T16:00:28.298Z,45.74
2023-04-18T16:03:15.838Z,45.82
2023-04-18T16:06:04.628Z,45.70
2023-04-18T16:08:51.182Z,45.99
2023-04-18T16:11:37.212Z,45.79
2023-04-18T16:14:31.329Z,46.08
2023-04-18T16:17:17.459Z,46.06
2023-04-18T16:20:03.791Z,45.97
2023-04-18T16:22:49.610Z,45.81
2023-04-18T16:25:35.492Z,45.76
2023-04-18T16:28:22.182Z,45.77
2023-04-18T16:31:08.360Z,45.89
2023-04-18T16:33:54.614Z,45.91
2023-04-18T16:36:40.760Z,45.80
2023-04-18T16:39:28.158Z,45.74
2023-04-18T16:42:15.668Z,45.77
2023-04-18T16:45:03.028Z,45.94
2023-04-18T16:47:49.276Z,45.96
2023-04-18T16:50:35.563Z,45.80
2023-04-18T16:53:23.854Z,45.70
2023-04-18T16:56:09.980Z,45.94
2023-04-18T16:58:56.053Z,46.00
2023-04-18T17:01:42.169Z,45.85
2023-04-18T17:04:29.168Z,45.96
2023-04-18T17:07:15.835Z,46.06
2023-04-18T17:10:01.716Z,46.09
2023-04-18T17:12:49.254Z,46.02
2023-04-18T17:15:36.149Z,46.24
2023-04-18T17:18:23.556Z,46.17
2023-04-18T17:21:12.528Z,46.18
2023-04-18T17:24:01.893Z,46.09
2023-04-18T17:26:47.855Z,46.24
2023-04-18T17:29:34.044Z,46.24
2023-04-18T17:32:19.994Z,46.21
2023-04-18T17:35:06.559Z,45.98
2023-04-18T17:37:52.976Z,46.05
2023-04-18T17:40:39.700Z,46.18
2023-04-18T17:43:25.853Z,46.17
2023-04-18T17:46:12.301Z,46.19
2023-04-18T17:48:58.150Z,46.46
2023-04-18T17:51:44.006Z,46.00
2023-04-18T17:54:30.289Z,46.35
2023-04-18T17:57:16.637Z,46.33
2023-04-18T18:00:02.507Z,46.50
2023-04-18T18:02:58.399Z,46.49
2023-04-18T18:05:49.471Z,45.99
2023-04-18T18:08:38.118Z,46.55
2023-04-18T18:11:24.422Z,46.23
2023-04-18T18:14:10.178Z,46.65
2023-04-18T18:16:56.159Z,46.66
2023-04-18T18:19:42.379Z,46.94
2023-04-18T18:22:28.419Z,46.81
2023-04-18T18:25:14.470Z,46.93
2023-04-18T18:28:02.266Z,46.76
2023-04-18T18:30:48.417Z,47.01
2023-04-18T18:33:34.695Z,47.08
2023-04-18T18:36:22.044Z,47.22
2023-04-18T18:39:08.360Z,47.30
2023-04-18T18:41:58.393Z,47.57
2023-04-18T18:44:45.677Z,47.29
2023-04-18T18:47:32.016Z,47.67
2023-04-18T18:50:18.372Z,47.24
2023-04-18T18:53:06.198Z,47.71
2023-04-18T18:55:52.130Z,47.46
2023-04-18T18:58:39.407Z,47.86
2023-04-18T19:01:25.344Z,47.45
2023-04-18T19:04:11.585Z,47.86
2023-04-18T19:06:57.754Z,47.79
2023-04-18T19:09:43.913Z,47.91
2023-04-18T19:12:29.983Z,48.19
2023-04-18T19:15:15.806Z,48.04
2023-04-18T19:18:02.049Z,48.03
2023-04-18T19:20:49.859Z,48.07
2023-04-18T19:23:37.628Z,48.21
2023-04-18T19:26:23.744Z,48.45
2023-04-18T19:29:10.568Z,48.22
2023-04-18T19:31:56.530Z,48.45
2023-04-18T19:34:43.029Z,48.28
2023-04-18T19:37:29.039Z,48.56
2023-04-18T19:40:14.995Z,48.59
2023-04-18T19:43:03.251Z,48.75
2023-04-18T19:45:50.962Z,48.70
2023-04-18T19:48:36.845Z,48.95
2023-04-18T19:51:23.028Z,48.80
2023-04-18T19:54:08.948Z,48.97
2023-04-18T19:56:55.151Z,49.33
2023-04-18T19:59:41.174Z,49.33
2023-04-18T20:02:28.280Z,49.13
2023-04-18T20:05:14.793Z,49.10
2023-04-18T20:08:00.676Z,49.35
2023-04-18T20:10:46.529Z,49.48
2023-04-18T20:13:32.414Z,49.55
2023-04-18T20:16:18.750Z,49.48
2023-04-18T20:19:05.846Z,49.51
2023-04-18T20:21:52.294Z,49.68
2023-04-18T20:24:39.440Z,49.66
2023-04-18T20:27:25.779Z,49.67
2023-04-18T20:30:12.093Z,49.69
2023-04-18T20:32:58.070Z,50.05
2023-04-18T20:35:44.661Z,49.66
2023-04-18T20:38:30.921Z,50.04
2023-04-18T20:41:22.771Z,49.67
2023-04-18T20:44:10.828Z,49.78
2023-04-18T20:46:58.606Z,49.78
2023-04-18T20:49:45.080Z,50.08
2023-04-18T20:52:31.110Z,49.86
2023-04-18T20:55:17.164Z,50.14
2023-04-18T20:58:03.300Z,50.06
2023-04-18T21:00:49.328Z,50.13
2023-04-18T21:03:36.003Z,50.27
2023-04-18T21:06:22.837Z,50.00
2023-04-18T21:09:09.679Z,50.53
2023-04-18T21:11:55.614Z,50.47
2023-04-18T21:14:42.416Z,50.35
2023-04-18T21:17:28.433Z,50.58
2023-04-18T21:20:14.485Z,50.58
2023-04-18T21:23:00.278Z,50.69
2023-04-18T21:25:46.033Z,50.58
2023-04-18T21:28:31.823Z,50.67
2023-04-18T21:31:17.807Z,50.93
2023-04-18T21:34:05.385Z,50.77
2023-04-18T21:36:51.547Z,50.95
2023-04-18T21:39:38.291Z,50.93
2023-04-18T21:42:26.968Z,50.98
2023-04-18T21:45:13.708Z,51.02
2023-04-18T21:48:00.881Z,51.11
2023-04-18T21:50:47.019Z,51.17
2023-04-18T21:53:33.260Z,51.09
2023-04-18T21:56:19.434Z,51.03
2023-04-18T21:59:05.401Z,51.06
2023-04-18T22:01:51.003Z,51.24
2023-04-18T22:04:38.223Z,51.44
2023-04-18T22:07:24.714Z,51.31
2023-04-18T22:10:11.153Z,51.05
2023-04-18T22:12:58.756Z,51.20
2023-04-18T22:15:45.168Z,51.06
2023-04-18T22:18:33.990Z,51.29
2023-04-18T22:21:20.254Z,51.41
2023-04-18T22:24:06.924Z,51.27
2023-04-18T22:26:53.635Z,50.96
2023-04-18T22:29:39.644Z,51.18
2023-04-18T22:32:25.522Z,51.42
2023-04-18T22:35:12.439Z,51.58
2023-04-18T22:37:58.341Z,51.35
2023-04-18T22:40:44.133Z,51.35
2023-04-18T22:43:30.721Z,51.48
2023-04-18T22:46:16.787Z,51.88
2023-04-18T22:49:02.633Z,51.62
2023-04-18T22:51:48.696Z,51.63
2023-04-18T22:54:39.259Z,51.81
2023-04-18T22:57:25.397Z,51.80
2023-04-18T23:00:12.405Z,51.83
2023-04-18T23:02:58.365Z,51.95
2023-04-18T23:05:44.793Z,51.84
2023-04-18T23:08:31.076Z,51.91
2023-04-18T23:11:16.922Z,51.75
2023-04-18T23:14:03.295Z,51.83
2023-04-18T23:16:49.564Z,51.66
2023-04-18T23:19:36.023Z,51.95
2023-04-18T23:22:24.494Z,51.81
2023-04-18T23:25:10.691Z,52.15
2023-04-18T23:27:56.598Z,52.03
2023-04-18T23:30:42.393Z,52.28
2023-04-18T23:33:28.249Z,52.11
2023-04-18T23:36:14.216Z,52.35
2023-04-18T23:39:00.295Z,52.33
2023-04-18T23:41:46.262Z,52.38
2023-04-18T23:44:32.505Z,52.30
2023-04-18T23:47:18.825Z,52.39
2023-04-18T23:50:05.466Z,52.21
2023-04-18T23:52:51.547Z,52.42
2023-04-18T23:55:37.459Z,52.47
2023-04-18T23:58:23.413Z,52.35
